Time;durP1;ratioP1;P1;durP2;ratioP2;P2;SDS_P1;SDS_P2;PMS_P1;PMS_P2;Temp;Humidity;BMP_temperature;BMP_pressure;BME280_temperature;BME280_humidity;BME280_pressure;Samples;Min_cycle;Max_cycle;Signal;HPM_P1;HPM_P2
2021/11/09 01:49:28;;;;;;;14.38;7.22;;;;;;;5.29;77.86;99814.25;2622754;47;20034;-66
2021/11/09 01:51:58;;;;;;;12.48;7.82;;;;;;;5.36;77.67;99822.44;2625003;39;20424;-66
2021/11/09 01:54:27;;;;;;;14.23;6.70;;;;;;;5.45;77.71;99819.00;2623060;54;20039;-67
2021/11/09 01:56:57;;;;;;;12.55;6.00;;;;;;;5.56;77.76;99825.94;2623988;54;20085;-68
2021/11/09 01:59:29;;;;;;;14.93;7.03;;;;;;;5.62;76.97;99823.56;2625196;39;20497;-70
2021/11/09 02:02:00;;;;;;;14.38;7.28;;;;;;;5.61;76.99;99816.69;2623893;54;20038;-67
2021/11/09 02:04:35;;;;;;;12.23;6.82;;;;;;;5.65;76.50;99822.47;2623229;54;20038;-70
2021/11/09 02:07:06;;;;;;;10.10;6.22;;;;;;;5.56;76.57;99825.94;2624155;54;20094;-67
2021/11/09 02:09:35;;;;;;;11.70;6.00;;;;;;;5.50;76.52;99818.59;2623710;39;20489;-68
2021/11/09 02:12:07;;;;;;;12.70;6.50;;;;;;;5.35;76.53;99818.97;2624216;54;20038;-68
2021/11/09 02:14:37;;;;;;;11.93;5.97;;;;;;;5.28;76.72;99819.66;2624178;54;20074;-67
2021/11/09 02:17:07;;;;;;;9.80;5.45;;;;;;;5.24;76.94;99813.00;2624780;54;20040;-67
2021/11/09 02:19:40;;;;;;;10.13;6.00;;;;;;;5.22;76.37;99819.22;2624085;54;20023;-67
2021/11/09 02:22:13;;;;;;;8.38;5.50;;;;;;;5.13;76.67;99819.19;2623966;47;20034;-67
2021/11/09 02:24:43;;;;;;;11.73;5.85;;;;;;;5.08;76.53;99813.50;2624789;54;20037;-67
2021/11/09 02:27:13;;;;;;;10.85;5.45;;;;;;;5.05;76.76;99826.88;2624468;54;20121;-67
2021/11/09 02:29:43;;;;;;;9.63;5.68;;;;;;;5.02;76.93;99821.88;2625501;39;20430;-70
2021/11/09 02:32:12;;;;;;;8.95;5.45;;;;;;;5.02;76.86;99825.38;2623997;54;20122;-67
2021/11/09 02:34:42;;;;;;;9.75;5.13;;;;;;;5.00;76.36;99821.22;2625470;54;20034;-67
2021/11/09 02:37:15;;;;;;;12.73;5.28;;;;;;;4.97;76.65;99822.28;2626163;54;20037;-69
2021/11/09 02:39:45;;;;;;;8.30;4.95;;;;;;;4.95;76.69;99826.84;2626226;47;20035;-67
2021/11/09 02:42:18;;;;;;;8.80;4.90;;;;;;;4.91;76.54;99831.50;2625924;54;20038;-69
2021/11/09 02:44:55;;;;;;;8.98;4.80;;;;;;;4.85;76.52;99824.16;2626423;54;20087;-68
2021/11/09 02:47:28;;;;;;;8.20;4.68;;;;;;;4.71;76.04;99827.97;2626908;54;20027;-68
2021/11/09 02:50:01;;;;;;;11.07;5.18;;;;;;;4.55;76.44;99818.91;2626581;47;20022;-67
2021/11/09 02:52:34;;;;;;;10.70;4.72;;;;;;;4.42;76.77;99819.94;2626610;54;20090;-68
2021/11/09 02:55:07;;;;;;;12.63;4.90;;;;;;;4.36;77.13;99819.63;2626000;54;20022;-67
2021/11/09 02:57:43;;;;;;;6.75;3.80;;;;;;;4.33;77.26;99827.75;2626795;54;20038;-68
2021/11/09 03:00:21;;;;;;;9.98;4.75;;;;;;;4.28;77.18;99822.03;2626367;49;20670;-68
2021/11/09 03:02:53;;;;;;;8.20;4.10;;;;;;;4.17;77.16;99829.00;2626432;54;20037;-67
2021/11/09 03:05:27;;;;;;;9.38;3.90;;;;;;;4.13;77.52;99832.00;2626430;54;20034;-68
2021/11/09 03:08:04;;;;;;;7.22;3.40;;;;;;;4.07;77.36;99829.88;2625702;46;20033;-67
2021/11/09 03:10:35;;;;;;;5.68;2.95;;;;;;;3.92;77.57;99826.75;2626017;46;20515;-68
2021/11/09 03:13:06;;;;;;;8.80;3.80;;;;;;;3.81;77.30;99832.03;2625838;54;20041;-69
2021/11/09 03:15:37;;;;;;;6.97;3.20;;;;;;;3.73;77.68;99841.31;2626734;54;20580;-67
2021/11/09 03:18:09;;;;;;;8.85;3.55;;;;;;;3.72;78.17;99839.66;2626407;39;20419;-67
2021/11/09 03:20:45;;;;;;;5.13;2.70;;;;;;;3.72;78.38;99838.81;2626004;54;20042;-69
2021/11/09 03:45:04;;;;;;;7.82;4.00;;;;;;;3.94;77.56;99843.16;2625920;54;20094;-68
2021/11/09 03:47:39;;;;;;;7.10;4.07;;;;;;;3.95;76.84;99844.78;2624525;54;20027;-67
2021/11/09 03:50:12;;;;;;;5.30;3.42;;;;;;;3.92;77.22;99845.06;2625225;54;20030;-67
2021/11/09 03:52:46;;;;;;;7.68;3.70;;;;;;;3.90;76.95;99846.97;2625391;54;20038;-69
2021/11/09 03:55:26;;;;;;;8.60;3.03;;;;;;;3.93;77.18;99846.72;2624586;47;20027;-67
2021/11/09 03:58:05;;;;;;;5.80;3.45;;;;;;;3.84;76.82;99847.47;2625590;54;20030;-67
2021/11/09 04:00:40;;;;;;;8.43;3.45;;;;;;;3.70;76.76;99845.94;2624821;54;20038;-70
2021/11/09 04:03:22;;;;;;;10.02;3.90;;;;;;;3.57;76.77;99850.50;2627289;54;20057;-67
2021/11/09 04:05:56;;;;;;;10.50;3.85;;;;;;;3.45;77.06;99850.53;2620299;54;20031;-67
2021/11/09 04:08:39;;;;;;;7.38;3.72;;;;;;;3.50;77.16;99855.38;2618857;54;20026;-67
2021/11/09 04:11:17;;;;;;;7.63;3.95;;;;;;;3.46;77.52;99852.19;2618680;54;20087;-69
2021/11/09 04:13:53;;;;;;;4.97;3.45;;;;;;;3.47;77.32;99856.47;2617688;46;20023;-66
2021/11/09 04:16:33;;;;;;;6.38;3.75;;;;;;;3.46;77.67;99854.78;2618450;54;20035;-67
2021/11/09 04:19:13;;;;;;;9.32;4.03;;;;;;;3.36;77.32;99863.50;2617698;51;20049;-67
2021/11/09 04:22:04;;;;;;;10.55;4.10;;;;;;;3.23;77.29;99851.38;2618641;39;20398;-67
2021/11/09 04:24:57;;;;;;;8.27;4.30;;;;;;;3.13;77.24;99850.44;2618372;54;20038;-67
2021/11/09 04:27:36;;;;;;;11.07;5.03;;;;;;;3.06;77.53;99859.72;2617904;47;20026;-67
2021/11/09 04:30:32;;;;;;;12.23;7.50;;;;;;;3.05;77.44;99868.47;2618710;39;20441;-67
2021/11/09 04:36:37;;;;;;;6.97;4.47;;;;;;;2.91;77.69;99866.13;2622112;54;20026;-67
2021/11/09 04:52:54;;;;;;;9.98;6.70;;;;;;;2.94;77.92;99861.50;2617318;54;20030;-67
2021/11/09 05:01:16;;;;;;;8.70;4.45;;;;;;;2.77;77.88;99868.94;2621936;54;20034;-67
2021/11/09 05:09:15;;;;;;;13.18;9.55;;;;;;;2.91;77.69;99876.56;2624774;54;20031;-67
2021/11/09 05:11:45;;;;;;;12.65;8.07;;;;;;;2.75;76.48;99882.13;2623407;54;20039;-67
2021/11/09 05:14:17;;;;;;;16.23;9.32;;;;;;;2.61;77.44;99884.91;2624177;54;20035;-69
2021/11/09 05:16:49;;;;;;;17.98;10.07;;;;;;;2.66;78.04;99883.66;2624700;54;20038;-67
2021/11/09 05:19:18;;;;;;;11.95;7.43;;;;;;;2.64;77.54;99887.31;2624252;54;20034;-70
2021/11/09 05:21:48;;;;;;;12.50;7.25;;;;;;;2.55;77.38;99898.44;2623745;54;20026;-68
2021/11/09 05:24:18;;;;;;;11.13;7.03;;;;;;;2.50;77.93;99895.34;2624162;54;20077;-68
2021/11/09 05:26:48;;;;;;;13.23;7.03;;;;;;;2.51;77.97;99904.84;2625029;54;20030;-68
2021/11/09 05:29:18;;;;;;;11.13;6.28;;;;;;;2.54;77.89;99909.84;2624253;54;20553;-70
2021/11/09 05:31:56;;;;;;;11.73;6.13;;;;;;;2.63;77.70;99917.81;2624211;47;20034;-69
2021/11/09 05:34:29;;;;;;;11.75;5.72;;;;;;;2.60;77.74;99919.81;2624819;54;20035;-69
2021/11/09 05:36:59;;;;;;;8.48;5.22;;;;;;;2.60;77.82;99922.44;2623898;39;20387;-67
2021/11/09 05:39:38;;;;;;;11.68;6.35;;;;;;;2.67;77.84;99923.63;2623786;54;20034;-67
2021/11/09 05:42:09;;;;;;;11.68;7.00;;;;;;;2.75;77.57;99928.28;2623412;54;20030;-68
2021/11/09 05:44:38;;;;;;;11.88;7.78;;;;;;;2.78;77.42;99922.84;2623959;54;20034;-68
2021/11/09 05:47:11;;;;;;;12.23;7.65;;;;;;;2.79;77.33;99927.94;2624665;54;20043;-67
2021/11/09 05:49:41;;;;;;;11.40;7.32;;;;;;;2.75;77.37;99926.50;2623363;54;20084;-66
2021/11/09 05:52:12;;;;;;;12.18;7.38;;;;;;;2.65;77.31;99933.34;2622367;39;20634;-66
2021/11/09 05:54:41;;;;;;;11.82;6.93;;;;;;;2.55;76.81;99930.59;2620194;47;20081;-69
2021/11/09 05:57:11;;;;;;;10.10;6.32;;;;;;;2.43;77.09;99931.50;2619829;47;20041;-67
2021/11/09 05:59:41;;;;;;;14.20;6.43;;;;;;;2.36;77.30;99935.50;2621552;39;20426;-67
2021/11/09 06:02:13;;;;;;;8.45;4.90;;;;;;;2.26;77.14;99937.13;2620349;54;20022;-68
2021/11/09 06:04:52;;;;;;;10.90;4.95;;;;;;;2.10;77.33;99934.81;2619640;54;20027;-67
2021/11/09 06:07:25;;;;;;;7.63;4.60;;;;;;;1.99;77.40;99935.56;2619069;54;20030;-67
2021/11/09 06:09:54;;;;;;;8.57;5.20;;;;;;;1.97;77.92;99933.09;2618810;47;20034;-68
2021/11/09 06:12:24;;;;;;;9.85;5.40;;;;;;;1.95;77.58;99928.91;2621102;39;20175;-69
2021/11/09 06:14:54;;;;;;;11.63;5.68;;;;;;;1.95;77.84;99937.56;2621415;54;20038;-68
2021/11/09 06:17:26;;;;;;;10.77;5.85;;;;;;;1.88;77.85;99946.78;2621426;54;20032;-68
2021/11/09 06:19:56;;;;;;;10.52;5.82;;;;;;;1.86;77.66;99935.63;2621065;54;20019;-68
2021/11/09 06:22:25;;;;;;;9.88;5.60;;;;;;;1.88;78.42;99943.34;2621671;54;20026;-68
2021/11/09 06:24:55;;;;;;;6.18;4.70;;;;;;;1.93;77.90;99936.03;2620823;54;20035;-67
2021/11/09 06:27:25;;;;;;;9.02;5.13;;;;;;;1.90;77.83;99939.66;2620816;46;20061;-68
2021/11/09 06:29:55;;;;;;;10.25;4.97;;;;;;;1.90;77.68;99939.66;2620342;47;20541;-68
2021/11/09 06:32:27;;;;;;;12.35;5.13;;;;;;;2.00;77.91;99942.47;2624145;47;20038;-69
2021/11/09 06:34:57;;;;;;;7.70;4.60;;;;;;;2.03;77.53;99938.78;2624357;54;20043;-68
2021/11/09 06:37:30;;;;;;;6.60;4.47;;;;;;;2.02;77.50;99955.41;2623814;54;20034;-68
2021/11/09 06:40:00;;;;;;;6.70;4.13;;;;;;;2.07;77.52;99956.72;2624103;39;20413;-68
2021/11/09 06:42:30;;;;;;;6.25;4.40;;;;;;;2.09;77.20;99956.63;2623475;47;20029;-67
2021/11/09 06:45:00;;;;;;;5.05;3.90;;;;;;;2.13;77.43;99958.06;2624176;54;20103;-68
2021/11/09 06:47:32;;;;;;;5.82;3.60;;;;;;;2.18;77.20;99963.78;2624679;54;20035;-69
2021/11/09 06:50:02;;;;;;;7.68;3.90;;;;;;;2.23;77.27;99964.28;2623738;54;20042;-69
2021/11/09 06:52:32;;;;;;;7.70;3.63;;;;;;;2.34;77.24;99964.34;2623735;54;20045;-67
2021/11/09 06:55:02;;;;;;;6.22;3.78;;;;;;;2.33;76.66;99973.13;2623534;47;20019;-68
2021/11/09 06:57:44;;;;;;;9.60;4.53;;;;;;;2.32;76.46;99968.81;2624530;54;20034;-68
2021/11/09 07:00:17;;;;;;;7.03;4.90;;;;;;;2.20;76.49;99973.19;2623654;54;20039;-68
2021/11/09 07:02:49;;;;;;;14.73;5.30;;;;;;;2.21;76.82;99974.00;2623412;54;20030;-67
2021/11/09 07:05:20;;;;;;;11.70;5.78;;;;;;;2.15;76.61;99972.66;2623296;54;20033;-67
2021/11/09 07:07:49;;;;;;;9.40;5.85;;;;;;;2.20;76.90;99980.16;2623690;54;20031;-67
2021/11/09 07:10:20;;;;;;;10.32;5.57;;;;;;;2.23;77.16;99983.38;2622687;54;20628;-68
2021/11/09 07:12:50;;;;;;;10.15;5.32;;;;;;;2.31;77.01;99982.00;2623780;54;20027;-68
2021/11/09 07:15:20;;;;;;;10.15;6.55;;;;;;;2.37;77.05;99989.38;2624152;54;20550;-69
2021/11/09 07:17:53;;;;;;;11.02;5.55;;;;;;;2.44;76.95;99991.41;2621998;39;20599;-73
2021/11/09 07:20:23;;;;;;;12.45;5.90;;;;;;;2.45;76.83;99997.50;2623011;54;20037;-70
2021/11/09 07:22:54;;;;;;;13.73;6.35;;;;;;;2.43;76.79;100000.19;2624658;54;20090;-68
2021/11/09 07:25:24;;;;;;;10.88;6.13;;;;;;;2.41;76.60;100007.31;2623808;54;20030;-68
2021/11/09 07:27:53;;;;;;;11.88;6.18;;;;;;;2.45;76.80;100002.72;2623204;54;20033;-69
2021/11/09 07:30:26;;;;;;;10.45;6.13;;;;;;;2.52;77.05;100005.69;2625367;54;20041;-69
2021/11/09 07:32:59;;;;;;;10.50;6.38;;;;;;;2.58;76.70;100010.47;2624739;46;20033;-68
2021/11/09 07:35:28;;;;;;;11.15;6.07;;;;;;;2.57;76.37;100008.78;2624749;54;20037;-70
2021/11/09 07:37:58;;;;;;;14.27;6.60;;;;;;;2.64;77.07;100016.06;2624797;54;20027;-68
2021/11/09 07:40:28;;;;;;;11.70;7.43;;;;;;;2.77;76.96;100010.78;2624574;54;20031;-68
2021/11/09 07:42:58;;;;;;;12.10;8.13;;;;;;;2.91;76.62;100017.59;2624338;54;20027;-67
2021/11/09 07:45:28;;;;;;;12.45;6.63;;;;;;;2.98;76.89;100009.19;2624155;54;20022;-67
2021/11/09 07:48:01;;;;;;;12.75;8.15;;;;;;;3.09;76.40;100018.84;2625089;54;20034;-69
2021/11/09 07:50:31;;;;;;;15.05;7.68;;;;;;;3.19;76.52;100013.75;2626872;39;20422;-69
2021/11/09 07:53:03;;;;;;;12.90;7.53;;;;;;;3.27;76.25;100010.56;2626428;54;20038;-68
2021/11/09 07:55:39;;;;;;;9.52;6.63;;;;;;;3.30;76.07;100012.94;2626249;54;20030;-68
2021/11/09 07:58:17;;;;;;;11.23;5.95;;;;;;;3.33;75.89;100015.31;2626528;54;20081;-68
2021/11/09 08:00:50;;;;;;;9.35;5.75;;;;;;;3.43;76.12;100017.13;2625245;54;20033;-70
2021/11/09 08:03:24;;;;;;;11.02;5.88;;;;;;;3.58;75.52;100017.72;2626145;54;20046;-68
2021/11/09 08:06:09;;;;;;;11.75;5.72;;;;;;;3.56;75.07;100014.41;2625519;51;20591;-68
2021/11/09 08:08:50;;;;;;;8.38;4.85;;;;;;;3.57;74.82;100008.22;2627758;39;20422;-69
2021/11/09 08:11:19;;;;;;;9.88;5.15;;;;;;;3.71;74.88;100009.75;2625494;46;20030;-69
2021/11/09 08:13:49;;;;;;;13.02;6.53;;;;;;;3.80;74.35;100011.66;2625901;46;20026;-69
2021/11/09 08:16:19;;;;;;;10.13;6.30;;;;;;;3.78;74.69;100010.94;2625941;54;20021;-69
2021/11/09 08:18:52;;;;;;;11.95;6.35;;;;;;;3.85;74.49;100011.31;2625135;49;20019;-69
2021/11/09 08:21:21;;;;;;;13.88;7.95;;;;;;;3.98;74.94;100006.78;2625705;47;20593;-69
2021/11/09 08:23:51;;;;;;;12.95;7.20;;;;;;;4.09;74.33;100004.16;2625823;54;20035;-68
2021/11/09 08:26:25;;;;;;;13.20;8.02;;;;;;;4.16;73.97;99999.22;2626294;54;20125;-69
2021/11/09 08:28:56;;;;;;;12.65;6.65;;;;;;;4.23;74.09;99998.63;2626029;54;20608;-69
2021/11/09 08:31:26;;;;;;;14.23;7.22;;;;;;;4.36;74.27;100003.69;2625910;54;20799;-69
2021/11/09 08:33:58;;;;;;;11.95;7.35;;;;;;;4.47;73.70;99998.44;2625936;54;20058;-69
2021/11/09 08:36:30;;;;;;;9.27;6.38;;;;;;;4.56;73.68;99998.66;2626507;39;20705;-70
2021/11/09 08:39:01;;;;;;;12.23;6.20;;;;;;;4.61;73.38;99999.97;2625626;47;20029;-69
2021/11/09 08:41:38;;;;;;;9.60;5.55;;;;;;;4.70;73.22;99998.38;2625738;54;20038;-70
2021/11/09 08:44:10;;;;;;;11.38;5.72;;;;;;;4.83;73.32;99993.78;2625731;54;20034;-69
2021/11/09 08:46:42;;;;;;;11.30;5.45;;;;;;;4.87;72.17;99995.19;2624809;47;20037;-70
2021/11/09 08:49:16;;;;;;;12.98;7.50;;;;;;;4.96;72.50;99990.97;2622617;54;20027;-69
2021/11/09 08:51:46;;;;;;;13.52;7.28;;;;;;;5.02;72.03;99989.63;2622830;39;20422;-69
2021/11/09 08:54:21;;;;;;;15.57;6.22;;;;;;;5.08;72.39;99992.56;2624141;47;20041;-70
2021/11/09 08:57:07;;;;;;;11.77;5.78;;;;;;;5.20;72.52;99996.78;2624615;54;20023;-70
2021/11/09 09:05:07;;;;;;;16.60;7.10;;;;;;;5.63;72.15;99989.66;2621136;54;20557;-70
2021/11/09 09:07:37;;;;;;;15.32;6.88;;;;;;;5.69;72.06;99986.53;2621778;54;20030;-70
2021/11/09 09:10:10;;;;;;;13.20;8.02;;;;;;;5.80;72.05;99985.63;2623070;54;20084;-70
2021/11/09 09:12:41;;;;;;;12.82;7.78;;;;;;;5.87;72.08;99981.47;2624580;47;20050;-69
2021/11/09 09:15:12;;;;;;;14.85;8.25;;;;;;;5.95;72.24;99972.00;2624654;54;20023;-69
2021/11/09 09:17:43;;;;;;;18.73;8.23;;;;;;;6.05;71.92;99979.91;2624773;47;20034;-69
2021/11/09 09:20:21;;;;;;;15.00;7.40;;;;;;;6.13;71.54;99974.00;2625050;54;20074;-69
2021/11/09 09:23:01;;;;;;;16.70;8.27;;;;;;;6.22;71.78;99980.22;2625297;54;20580;-69
2021/11/09 09:25:43;;;;;;;17.25;7.78;;;;;;;6.38;72.01;99976.09;2624665;47;20037;-69
2021/11/09 09:53:02;;;;;;;38.17;22.92;;;;;;;7.72;68.86;99963.81;2624456;54;20030;-69
2021/11/09 09:55:44;;;;;;;16.73;9.30;;;;;;;7.82;68.46;99965.41;2624372;54;20629;-70
2021/11/09 09:58:14;;;;;;;12.85;7.53;;;;;;;7.91;67.62;99964.50;2623801;54;20040;-70
2021/11/09 10:00:46;;;;;;;16.75;7.60;;;;;;;7.99;66.70;99955.06;2624561;54;20550;-67
2021/11/09 10:03:16;;;;;;;15.30;5.40;;;;;;;8.04;66.54;99948.38;2624308;54;20030;-69
2021/11/09 10:05:46;;;;;;;10.15;5.57;;;;;;;8.17;66.71;99954.13;2625186;54;20549;-68
2021/11/09 10:08:20;;;;;;;13.10;5.38;;;;;;;8.34;65.72;99949.84;2625063;54;20022;-69
2021/11/09 10:10:50;;;;;;;;;;;;;;;8.41;64.37;99950.09;2625296;54;20026;-69
2021/11/09 10:13:23;;;;;;;12.73;5.50;;;;;;;8.43;64.76;99946.31;2624604;54;19950;-70
2021/11/09 10:15:56;;;;;;;10.10;5.03;;;;;;;8.52;64.33;99943.75;2624661;54;20022;-70
2021/11/09 10:18:27;;;;;;;10.95;5.07;;;;;;;8.60;63.44;99946.47;2624191;47;20358;-70
2021/11/09 10:20:59;;;;;;;10.30;4.78;;;;;;;8.65;63.89;99950.31;2624207;54;20023;-69
2021/11/09 10:23:34;;;;;;;9.02;4.30;;;;;;;8.77;62.31;99950.06;2624286;54;20033;-68
2021/11/09 10:26:11;;;;;;;7.93;3.78;;;;;;;8.84;62.31;99941.38;2625049;54;20062;-76
2021/11/09 10:28:41;;;;;;;8.88;3.72;;;;;;;8.99;62.77;99943.47;2624876;47;20031;-69
2021/11/09 10:31:15;;;;;;;6.90;3.05;;;;;;;9.05;61.42;99934.94;2624709;47;20030;-69
2021/11/09 10:33:49;;;;;;;5.10;3.30;;;;;;;9.15;59.92;99936.50;2624655;54;20541;-69
2021/11/09 10:36:24;;;;;;;4.85;2.80;;;;;;;9.16;59.29;99932.03;2624787;54;20037;-69
2021/11/09 10:38:56;;;;;;;9.70;3.05;;;;;;;9.22;58.72;99933.22;2625474;54;20037;-68
2021/11/09 10:41:26;;;;;;;6.00;3.05;;;;;;;9.32;57.31;99937.41;2623662;54;20041;-67
2021/11/09 10:44:10;;;;;;;5.40;2.90;;;;;;;9.45;57.55;99939.63;2623179;54;20030;-65
2021/11/09 10:46:40;;;;;;;4.38;2.28;;;;;;;9.67;56.79;99935.59;2622960;47;20026;-67
2021/11/09 10:49:09;;;;;;;6.13;2.42;;;;;;;9.75;55.84;99940.06;2623712;54;20027;-67
2021/11/09 10:52:01;;;;;;;4.38;2.30;;;;;;;9.80;55.62;99933.34;2622883;54;20042;-68
2021/11/09 10:54:58;;;;;;;3.30;1.85;;;;;;;9.75;53.88;99932.97;2622815;47;20057;-69
2021/11/09 10:57:41;;;;;;;4.00;2.08;;;;;;;9.68;54.63;99934.63;2622005;54;20026;-69
2021/11/09 11:00:20;;;;;;;6.65;2.28;;;;;;;9.68;54.88;99924.06;2622397;39;20501;-69
2021/11/09 11:05:32;;;;;;;5.25;2.00;;;;;;;9.80;53.50;99921.97;2621799;54;20048;-67
2021/11/09 11:08:03;;;;;;;4.57;2.08;;;;;;;9.85;52.75;99924.94;2621721;47;20029;-68
2021/11/09 11:10:38;;;;;;;3.65;2.13;;;;;;;9.87;52.70;99921.13;2622951;54;20041;-68
2021/11/09 11:13:25;;;;;;;2.65;1.77;;;;;;;9.90;52.13;99910.25;2625226;39;20539;-68
2021/11/09 11:16:13;;;;;;;3.25;1.77;;;;;;;10.01;52.30;99913.59;2621885;54;20525;-68
2021/11/09 11:18:45;;;;;;;3.67;1.90;;;;;;;10.09;52.65;99911.78;2619976;47;20026;-68
2021/11/09 11:21:18;;;;;;;5.00;2.10;;;;;;;10.21;51.54;99912.31;2619995;54;20045;-68
2021/11/09 11:23:48;;;;;;;2.78;1.40;;;;;;;10.21;51.51;99900.91;2620093;54;20041;-69
2021/11/09 11:26:22;;;;;;;2.80;1.60;;;;;;;10.27;50.58;99908.22;2620340;54;20573;-69
2021/11/09 11:28:54;;;;;;;3.88;1.63;;;;;;;10.25;50.30;99905.75;2619821;54;20038;-69
2021/11/09 11:31:24;;;;;;;4.55;1.77;;;;;;;10.23;50.51;99897.09;2620235;54;20038;-69
2021/11/09 11:33:54;;;;;;;2.50;1.60;;;;;;;10.28;49.94;99897.47;2624558;54;20034;-69
2021/11/09 11:36:23;;;;;;;3.33;1.48;;;;;;;10.29;49.81;99896.50;2625661;54;20039;-69
2021/11/09 11:38:56;;;;;;;3.70;1.60;;;;;;;10.29;50.12;99893.84;2626029;39;20438;-69
2021/11/09 11:41:35;;;;;;;2.83;1.57;;;;;;;10.32;50.10;99884.75;2624964;54;20038;-70
2021/11/09 11:44:08;;;;;;;2.20;1.23;;;;;;;10.40;50.11;99879.47;2624946;54;20038;-69
2021/11/09 11:46:54;;;;;;;1.60;1.40;;;;;;;10.49;49.44;99883.78;2622914;54;20027;-69
2021/11/09 11:49:30;;;;;;;2.10;1.48;;;;;;;10.52;48.63;99872.84;2620811;54;20310;-68
2021/11/09 11:52:20;;;;;;;5.25;1.90;;;;;;;10.47;48.88;99864.59;2619852;54;20101;-68
2021/11/09 11:55:00;;;;;;;4.45;1.50;;;;;;;10.47;48.93;99858.50;2620661;54;20034;-68
2021/11/09 11:57:52;;;;;;;3.88;1.80;;;;;;;10.49;47.54;99845.91;2620441;54;20037;-69
2021/11/09 12:00:42;;;;;;;4.75;1.55;;;;;;;10.43;48.62;99850.06;2620721;54;20027;-69
2021/11/09 12:03:37;;;;;;;5.22;2.10;;;;;;;10.48;47.86;99846.91;2621591;54;20027;-68
2021/11/09 12:06:25;;;;;;;2.22;1.60;;;;;;;10.47;47.63;99840.81;2620842;47;20027;-68
2021/11/09 12:08:57;;;;;;;2.22;1.40;;;;;;;10.46;47.77;99844.47;2622734;54;20034;-68
2021/11/09 12:11:46;;;;;;;7.95;1.85;;;;;;;10.50;48.37;99843.13;2623468;54;20038;-69
2021/11/09 12:14:20;;;;;;;3.38;2.00;;;;;;;10.56;48.43;99838.97;2625071;54;20026;-70
2021/11/09 12:17:00;;;;;;;4.97;2.08;;;;;;;10.59;47.82;99842.13;2625090;54;20035;-70
2021/11/09 12:19:51;;;;;;;6.53;2.63;;;;;;;10.63;47.77;99851.38;2624286;47;20029;-70
2021/11/09 12:22:26;;;;;;;9.52;3.42;;;;;;;10.61;48.47;99848.09;2625038;54;20033;-70
2021/11/09 12:24:58;;;;;;;3.97;2.60;;;;;;;10.67;48.16;99843.94;2625045;54;20034;-69
2021/11/09 12:27:32;;;;;;;5.80;2.20;;;;;;;10.61;47.91;99840.16;2624612;47;20035;-72
2021/11/09 12:30:05;;;;;;;5.13;2.47;;;;;;;10.56;48.49;99841.63;2625114;54;20034;-70
2021/11/09 12:32:42;;;;;;;9.90;3.00;;;;;;;10.48;47.63;99841.63;2624486;47;20568;-70
2021/11/09 12:35:26;;;;;;;4.47;3.00;;;;;;;10.43;48.24;99843.97;2625354;54;20022;-68
2021/11/09 12:38:12;;;;;;;5.93;2.92;;;;;;;10.41;48.85;99837.03;2624829;54;20137;-69
2021/11/09 12:40:50;;;;;;;5.47;3.10;;;;;;;10.42;48.80;99835.22;2624645;54;20030;-69
2021/11/09 12:43:22;;;;;;;7.65;3.70;;;;;;;10.43;49.49;99825.44;2623988;54;20045;-69
2021/11/09 12:46:08;;;;;;;6.22;3.10;;;;;;;10.46;49.88;99818.03;2624375;54;20022;-69
2021/11/09 12:48:48;;;;;;;5.70;3.38;;;;;;;10.48;49.42;99817.84;2623769;54;20038;-69
2021/11/09 12:51:21;;;;;;;4.40;3.13;;;;;;;10.45;49.81;99816.38;2623633;46;20114;-69
2021/11/09 12:53:53;;;;;;;7.47;3.50;;;;;;;10.48;49.23;99809.91;2624172;54;20031;-70
2021/11/09 12:56:27;;;;;;;5.45;3.30;;;;;;;10.42;49.98;99814.06;2625678;39;20437;-69
2021/11/09 12:59:00;;;;;;;5.20;3.28;;;;;;;10.44;49.67;99821.81;2622702;54;20545;-69
2021/11/09 13:01:42;;;;;;;5.38;3.50;;;;;;;10.41;49.81;99823.81;2623021;54;20035;-68
2021/11/09 13:04:23;;;;;;;7.05;3.83;;;;;;;10.32;49.94;99819.50;2623818;54;20034;-69
2021/11/09 13:07:02;;;;;;;10.48;3.95;;;;;;;10.21;50.89;99819.81;2623653;54;20565;-68
2021/11/09 13:09:37;;;;;;;5.47;3.60;;;;;;;10.23;50.84;99817.00;2622356;54;20035;-68
2021/11/09 13:12:09;;;;;;;9.93;4.80;;;;;;;10.30;51.05;99818.03;2622761;54;20053;-69
2021/11/09 13:14:45;;;;;;;10.10;4.55;;;;;;;10.34;50.85;99816.72;2623361;54;20038;-69
2021/11/09 13:17:41;;;;;;;9.77;4.30;;;;;;;10.31;51.16;99824.97;2623462;54;20043;-68
2021/11/09 13:20:19;;;;;;;7.70;4.22;;;;;;;10.25;51.14;99810.59;2622166;54;20026;-68
2021/11/09 13:22:57;;;;;;;7.90;4.20;;;;;;;10.26;51.70;99824.63;2621558;54;20093;-68
2021/11/09 13:25:33;;;;;;;8.73;4.45;;;;;;;10.29;51.15;99821.69;2621992;39;20415;-68
2021/11/09 13:28:05;;;;;;;7.10;4.13;;;;;;;10.33;51.46;99821.16;2621314;54;20030;-69
2021/11/09 13:30:50;;;;;;;7.25;3.97;;;;;;;10.33;51.20;99829.09;2621218;54;20050;-68
2021/11/09 13:33:24;;;;;;;8.88;3.97;;;;;;;10.32;51.04;99829.25;2623637;39;20517;-67
2021/11/09 13:35:53;;;;;;;;;;;;;;;10.35;50.73;99831.56;2624376;54;20035;-67
2021/11/09 13:38:25;;;;;;;5.15;3.60;;;;;;;10.31;50.78;99828.44;2625368;54;19958;-67
2021/11/09 13:40:58;;;;;;;6.75;3.33;;;;;;;10.33;50.64;99820.34;2624994;54;20023;-67
2021/11/09 13:43:31;;;;;;;6.28;3.80;;;;;;;10.32;51.17;99821.31;2625299;54;20030;-68
2021/11/09 13:46:04;;;;;;;9.50;3.67;;;;;;;10.30;50.75;99813.56;2625725;54;20027;-67
2021/11/09 13:51:28;;;;;;;6.53;4.10;;;;;;;10.34;51.11;99799.03;2619332;54;20045;-72
2021/11/09 13:54:01;;;;;;;6.35;3.50;;;;;;;10.40;51.45;99797.53;2618499;39;20468;-71
2021/11/09 13:56:31;;;;;;;5.05;2.95;;;;;;;10.40;51.46;99794.88;2618507;54;20050;-72
2021/11/09 13:59:05;;;;;;;6.75;3.13;;;;;;;10.36;51.25;99794.38;2618326;39;20429;-71
2021/11/09 14:01:38;;;;;;;5.88;3.63;;;;;;;10.38;50.91;99800.34;2618020;54;20537;-72
2021/11/09 14:04:19;;;;;;;5.03;3.23;;;;;;;10.34;51.21;99791.09;2618995;54;20038;-70
2021/11/09 14:07:12;;;;;;;9.40;4.00;;;;;;;10.35;51.15;99789.28;2618931;54;20038;-72
2021/11/09 14:12:47;;;;;;;7.75;3.30;;;;;;;10.37;51.03;99784.66;2618703;54;20030;-71
2021/11/09 14:15:26;;;;;;;4.85;3.05;;;;;;;10.38;51.52;99781.03;2618852;54;20042;-70
2021/11/09 14:17:56;;;;;;;5.13;3.17;;;;;;;10.40;51.09;99789.59;2618672;54;20025;-71
2021/11/09 14:20:26;;;;;;;6.18;3.50;;;;;;;10.39;51.17;99794.06;2618477;54;20545;-70
2021/11/09 14:23:08;;;;;;;4.50;3.20;;;;;;;10.40;51.88;99797.53;2618576;54;20030;-70
2021/11/09 14:25:38;;;;;;;7.68;4.18;;;;;;;10.41;51.36;99801.84;2618200;54;20022;-71
2021/11/09 14:28:07;;;;;;;9.25;3.95;;;;;;;10.41;51.78;99802.66;2618358;54;20083;-71
2021/11/09 14:30:39;;;;;;;5.20;3.50;;;;;;;10.46;51.79;99796.88;2618006;54;20026;-67
2021/11/09 14:33:15;;;;;;;7.25;3.90;;;;;;;10.48;51.34;99804.63;2618244;54;20022;-67
2021/11/09 14:35:45;;;;;;;6.95;3.03;;;;;;;10.46;51.37;99796.88;2618492;54;20558;-73
2021/11/09 14:38:23;;;;;;;4.18;2.00;;;;;;;10.43;51.34;99796.38;2618922;39;20699;-71
2021/11/09 14:40:55;;;;;;;6.47;2.42;;;;;;;10.41;51.27;99800.03;2618092;54;20034;-71
2021/11/09 14:43:29;;;;;;;7.40;3.10;;;;;;;10.40;50.74;99795.69;2618311;54;20038;-71
2021/11/09 14:46:12;;;;;;;4.35;3.05;;;;;;;10.40;51.22;99787.78;2618310;54;20042;-70
2021/11/09 14:48:52;;;;;;;6.45;2.60;;;;;;;10.39;50.87;99796.69;2618297;54;20039;-71
2021/11/09 14:51:28;;;;;;;3.97;2.20;;;;;;;10.35;51.55;99795.38;2617553;54;20073;-71
2021/11/09 14:54:12;;;;;;;3.30;2.25;;;;;;;10.34;50.76;99791.09;2618288;54;20071;-70
2021/11/09 14:56:42;;;;;;;4.22;2.22;;;;;;;10.25;51.09;99784.19;2619177;39;20410;-71
2021/11/09 14:59:16;;;;;;;2.83;1.95;;;;;;;10.21;50.95;99785.47;2618784;54;20046;-71
2021/11/09 15:01:58;;;;;;;6.05;3.22;;;;;;;10.16;52.00;99783.34;2618155;54;20061;-70
2021/11/09 15:04:36;;;;;;;8.48;3.50;;;;;;;10.12;52.57;99784.66;2618324;54;20572;-71
2021/11/09 15:07:14;;;;;;;8.55;4.03;;;;;;;10.05;53.68;99785.47;2618610;54;20042;-73
2021/11/09 15:10:04;;;;;;;8.45;3.85;;;;;;;9.95;54.44;99776.88;2617545;47;20077;-71
2021/11/09 15:12:45;;;;;;;6.55;3.58;;;;;;;9.88;54.63;99777.53;2618053;54;20546;-73
2021/11/09 15:26:17;;;;;;;8.35;3.55;;;;;;;9.52;56.14;99758.53;2618203;54;20574;-73
2021/11/09 15:28:54;;;;;;;7.70;3.90;;;;;;;9.46;56.74;99760.97;2618465;54;20041;-71
2021/11/09 15:31:28;;;;;;;7.80;3.60;;;;;;;9.39;56.85;99758.16;2618481;39;20445;-71
2021/11/09 15:34:06;;;;;;;7.43;3.50;;;;;;;9.36;57.19;99756.66;2617871;54;20061;-71
2021/11/09 15:36:54;;;;;;;7.07;3.60;;;;;;;9.31;57.07;99756.34;2618406;54;20039;-70
2021/11/09 15:39:28;;;;;;;7.20;3.95;;;;;;;9.24;57.23;99760.59;2617047;47;20058;-70